createdAt,value
2023-02-03T00:02:24.841Z,36.60
2023-02-03T00:07:27.734Z,36.45
2023-02-03T00:12:30.331Z,36.83
2023-02-03T00:17:33.142Z,38.47
2023-02-03T00:22:35.704Z,38.05
2023-02-03T00:27:38.393Z,38.15
2023-02-03T00:32:42.146Z,37.90
2023-02-03T00:37:44.846Z,39.78
2023-02-03T00:42:47.562Z,39.63
2023-02-03T00:47:50.102Z,40.08
2023-02-03T00:52:52.762Z,38.53
2023-02-03T00:57:55.433Z,36.85
2023-02-03T01:02:58.117Z,42.30
2023-02-03T01:08:01.719Z,36.97
2023-02-03T01:13:04.402Z,39.22
2023-02-03T01:18:07.099Z,44.38
2023-02-03T01:23:09.716Z,41.13
2023-02-03T01:28:12.452Z,43.53
2023-02-03T01:33:15.151Z,42.55
2023-02-03T01:38:17.794Z,40.30
2023-02-03T01:43:31.605Z,42.97
2023-02-03T01:48:36.111Z,46.72
2023-02-03T01:53:39.497Z,45.05
2023-02-03T01:58:43.593Z,41.80
2023-02-03T02:03:51.520Z,47.55
2023-02-03T02:08:57.867Z,43.47
2023-02-03T02:14:02.889Z,44.60
2023-02-03T02:19:52.009Z,44.13
2023-02-03T02:25:21.401Z,45.25
2023-02-03T02:30:43.231Z,48.92
2023-02-03T02:35:46.287Z,40.08
2023-02-03T02:41:13.323Z,39.83
2023-02-03T02:46:39.652Z,44.60
2023-02-03T02:51:45.398Z,44.70
2023-02-03T02:56:53.694Z,45.22
2023-02-03T03:01:56.381Z,39.22
2023-02-03T03:07:09.272Z,42.88
2023-02-03T03:12:21.145Z,46.00
2023-02-03T03:17:31.410Z,46.15
2023-02-03T03:22:40.354Z,36.20
2023-02-03T03:27:49.914Z,44.90
2023-02-03T03:32:53.108Z,40.88
2023-02-03T03:38:00.867Z,39.85
2023-02-03T03:43:05.544Z,39.13
2023-02-03T03:48:24.073Z,46.60
2023-02-03T03:53:28.923Z,39.53
2023-02-03T03:58:32.634Z,39.92
2023-02-03T04:03:49.455Z,41.20
2023-02-03T04:08:52.082Z,38.47
2023-02-03T04:13:54.589Z,41.03
2023-02-03T04:18:57.749Z,41.53
2023-02-03T04:24:00.280Z,40.45
2023-02-03T04:29:03.103Z,42.60
2023-02-03T04:34:06.351Z,41.63
2023-02-03T04:39:09.000Z,43.22
2023-02-03T04:44:11.590Z,40.60
2023-02-03T04:49:14.185Z,38.33
2023-02-03T04:54:17.007Z,41.50
2023-02-03T04:59:19.601Z,39.50
2023-02-03T05:04:22.417Z,37.25
2023-02-03T05:09:26.008Z,39.45
2023-02-03T05:14:28.581Z,43.85
2023-02-03T05:19:31.196Z,36.78
2023-02-03T05:24:33.758Z,36.25
2023-02-03T05:29:36.294Z,43.28
2023-02-03T05:34:41.265Z,36.78
2023-02-03T05:39:44.768Z,39.67
2023-02-03T05:44:47.286Z,31.27
2023-02-03T05:49:49.878Z,36.47
2023-02-03T05:54:52.423Z,35.08
2023-02-03T05:59:54.986Z,36.13
2023-02-03T06:04:57.613Z,30.83
2023-02-03T06:10:00.168Z,34.45
2023-02-03T06:15:03.030Z,35.42
2023-02-03T06:20:08.263Z,32.22
2023-02-03T06:25:13.027Z,33.45
2023-02-03T06:30:15.995Z,36.85
2023-02-03T06:35:19.045Z,35.92
2023-02-03T06:40:21.642Z,37.90
2023-02-03T06:45:25.100Z,45.03
2023-02-03T06:50:28.022Z,37.13
2023-02-03T06:55:30.777Z,39.53
2023-02-03T07:00:33.347Z,37.33
2023-02-03T07:05:36.960Z,37.17
2023-02-03T07:10:39.687Z,40.25
2023-02-03T07:15:42.343Z,39.03
2023-02-03T07:20:44.876Z,39.13
2023-02-03T07:25:47.541Z,40.80
2023-02-03T07:30:50.275Z,30.05
2023-02-03T07:35:57.319Z,30.35
2023-02-03T07:40:59.970Z,34.58
2023-02-03T07:46:02.795Z,35.95
2023-02-03T07:51:08.248Z,30.23
2023-02-03T07:56:12.126Z,28.40
2023-02-03T08:01:16.941Z,32.15
2023-02-03T08:06:19.617Z,32.83
2023-02-03T08:11:22.260Z,35.20
2023-02-03T08:16:24.849Z,34.60
2023-02-03T08:21:28.186Z,31.48
2023-02-03T08:26:30.983Z,34.63
2023-02-03T08:31:33.889Z,29.10
2023-02-03T08:36:40.033Z,32.03
2023-02-03T08:41:42.612Z,32.38
2023-02-03T08:46:45.661Z,26.13
2023-02-03T08:51:49.169Z,28.10
2023-02-03T08:56:52.321Z,33.78
2023-02-03T09:01:55.099Z,31.92
2023-02-03T09:06:57.779Z,40.38
2023-02-03T09:12:05.722Z,29.75
2023-02-03T09:17:09.467Z,35.95
2023-02-03T09:22:12.258Z,29.83
2023-02-03T09:27:15.118Z,36.33
2023-02-03T09:32:17.817Z,28.63
2023-02-03T09:37:20.386Z,29.70
2023-02-03T09:42:51.589Z,31.90
2023-02-03T09:48:00.509Z,28.77
2023-02-03T09:53:08.758Z,25.73
2023-02-03T09:58:14.685Z,25.55
2023-02-03T10:03:39.903Z,30.50
2023-02-03T10:08:48.529Z,24.08
2023-02-03T10:14:09.741Z,26.55
2023-02-03T10:19:20.787Z,30.47
2023-02-03T10:24:34.833Z,26.57
2023-02-03T10:29:43.430Z,25.95
2023-02-03T10:34:47.901Z,25.58
2023-02-03T10:39:52.530Z,22.90
2023-02-03T10:45:01.435Z,24.88
2023-02-03T10:50:35.565Z,21.08
2023-02-03T11:05:43.512Z,22.45
2023-02-03T11:10:47.024Z,26.02
2023-02-03T11:16:05.038Z,28.20
2023-02-03T11:21:10.856Z,21.95
2023-02-03T11:26:15.750Z,26.00
2023-02-03T11:31:24.975Z,25.88
2023-02-03T11:36:30.171Z,30.25
2023-02-03T11:41:39.133Z,25.42
2023-02-03T11:46:42.786Z,26.33
2023-02-03T11:52:01.751Z,20.83
2023-02-03T11:57:25.091Z,23.02
2023-02-03T12:03:04.964Z,22.67
2023-02-03T12:08:40.274Z,20.58
2023-02-03T12:14:21.058Z,18.58
2023-02-03T12:19:39.226Z,21.58
2023-02-03T12:25:10.434Z,26.25
2023-02-03T12:30:21.884Z,44.17
2023-02-03T12:35:32.538Z,23.55
2023-02-03T12:40:43.310Z,19.70
2023-02-03T12:45:54.580Z,18.60
2023-02-03T12:51:02.576Z,16.10
2023-02-03T12:56:12.470Z,17.70
2023-02-03T13:01:23.508Z,19.00
2023-02-03T13:06:39.480Z,17.00
2023-02-03T13:11:56.789Z,17.30
2023-02-03T13:17:12.705Z,18.02
2023-02-03T13:22:17.424Z,16.77
2023-02-03T13:27:37.390Z,16.92
2023-02-03T13:32:50.476Z,21.13
2023-02-03T13:38:05.420Z,15.73
2023-02-03T13:43:35.749Z,19.23
2023-02-03T13:48:46.146Z,24.70
2023-02-03T13:53:50.979Z,24.98
2023-02-03T13:59:28.822Z,23.45
2023-02-03T14:04:35.000Z,19.02
2023-02-03T14:09:38.995Z,23.60
2023-02-03T14:14:44.541Z,18.88
2023-02-03T14:19:50.607Z,17.45
2023-02-03T14:24:56.613Z,18.45
2023-02-03T14:30:17.499Z,18.88
2023-02-03T14:35:30.274Z,22.38
2023-02-03T14:40:50.868Z,32.58
2023-02-03T14:46:10.287Z,31.15
2023-02-03T14:51:57.789Z,27.42
2023-02-03T14:57:31.351Z,22.25
2023-02-03T15:02:34.765Z,32.50
2023-02-03T15:07:46.671Z,22.83
2023-02-03T15:12:54.067Z,18.80
2023-02-03T15:17:59.786Z,25.10
2023-02-03T15:23:03.395Z,20.92
2023-02-03T15:28:21.437Z,26.05
2023-02-03T15:33:24.278Z,24.38
2023-02-03T15:38:31.526Z,19.75
2023-02-03T15:43:43.533Z,23.48
2023-02-03T15:48:51.703Z,20.88
2023-02-03T15:54:02.642Z,23.90
2023-02-03T15:59:06.589Z,18.37
2023-02-03T16:04:11.922Z,20.20
2023-02-03T16:09:34.565Z,16.17
2023-02-03T16:14:37.380Z,16.70
2023-02-03T16:19:41.281Z,15.65
2023-02-03T16:24:46.170Z,17.25
2023-02-03T16:30:07.518Z,16.88
2023-02-03T16:35:29.351Z,18.00
2023-02-03T16:40:50.593Z,17.38
2023-02-03T16:46:16.125Z,16.20
2023-02-03T16:51:18.776Z,13.98
2023-02-03T16:56:21.434Z,13.00
2023-02-03T17:01:24.653Z,15.13
2023-02-03T17:06:27.364Z,15.23
2023-02-03T17:11:30.271Z,17.17
2023-02-03T17:16:33.608Z,14.02
2023-02-03T17:21:36.267Z,33.95
2023-02-03T17:26:38.824Z,33.28
2023-02-03T17:31:41.677Z,17.40
2023-02-03T17:36:47.060Z,18.35
2023-02-03T17:57:51.422Z,13.70
2023-02-03T18:02:54.913Z,14.43
2023-02-03T18:08:00.865Z,14.07
2023-02-03T18:13:08.827Z,43.30
2023-02-03T18:18:13.499Z,14.05
2023-02-03T18:23:16.037Z,14.52
2023-02-03T18:28:18.851Z,25.25
2023-02-03T18:33:21.663Z,14.68
2023-02-03T18:38:28.440Z,10.07
2023-02-03T18:43:32.461Z,9.45
2023-02-03T18:48:38.229Z,7.35
2023-02-03T18:53:41.882Z,7.20
2023-02-03T18:58:48.639Z,10.73
2023-02-03T19:03:53.684Z,6.30
2023-02-03T19:08:56.819Z,9.43
2023-02-03T19:13:59.430Z,7.00
2023-02-03T19:19:02.203Z,7.32
2023-02-03T19:24:07.436Z,6.40
2023-02-03T19:29:10.362Z,6.00
2023-02-03T19:34:22.264Z,8.85
2023-02-03T19:39:24.987Z,6.88
2023-02-03T19:44:27.746Z,10.70
2023-02-03T19:49:30.450Z,9.45
2023-02-03T19:54:33.117Z,7.82
2023-02-03T19:59:36.834Z,6.80
2023-02-03T20:04:39.466Z,5.80
2023-02-03T20:09:42.368Z,21.85
2023-02-03T20:14:45.105Z,9.45
2023-02-03T20:19:53.036Z,6.18
2023-02-03T20:24:58.227Z,5.80
2023-02-03T20:30:01.021Z,5.07
2023-02-03T20:35:06.626Z,5.22
2023-02-03T20:40:16.876Z,7.57
2023-02-03T20:45:21.726Z,5.03
2023-02-03T20:50:37.293Z,7.18
2023-02-03T20:55:44.632Z,8.10
2023-02-03T21:00:48.428Z,6.85
2023-02-03T21:05:51.089Z,6.72
2023-02-03T21:10:53.782Z,8.68
2023-02-03T21:16:04.619Z,5.78
2023-02-03T21:21:24.983Z,5.93
2023-02-03T21:26:37.516Z,6.47
2023-02-03T21:31:41.035Z,6.38
2023-02-03T21:36:43.683Z,7.68
2023-02-03T21:41:46.217Z,5.70
2023-02-03T21:46:48.814Z,6.47
2023-02-03T21:51:51.554Z,7.85
2023-02-03T21:56:58.264Z,5.75
2023-02-03T22:02:02.578Z,9.38
2023-02-03T22:07:16.624Z,11.98
2023-02-03T22:12:19.253Z,9.60
2023-02-03T22:17:21.912Z,9.43
2023-02-03T22:22:24.564Z,7.60
2023-02-03T22:27:27.187Z,9.23
2023-02-03T22:32:29.731Z,10.48
2023-02-03T22:37:33.499Z,7.20
2023-02-03T22:42:39.468Z,11.38
2023-02-03T22:47:42.876Z,10.27
2023-02-03T22:52:45.518Z,11.32
2023-02-03T22:57:50.039Z,7.30
2023-02-03T23:02:53.129Z,7.03
2023-02-03T23:07:56.333Z,8.70
2023-02-03T23:13:00.910Z,6.75
2023-02-03T23:18:03.793Z,8.35
2023-02-03T23:23:07.129Z,7.65
2023-02-03T23:28:09.939Z,9.70
2023-02-03T23:33:12.525Z,8.05
2023-02-03T23:38:16.595Z,8.00
2023-02-03T23:43:19.161Z,7.45
2023-02-03T23:48:22.146Z,8.57
2023-02-03T23:53:25.034Z,11.20
2023-02-03T23:58:31.053Z,8.07
